sensor_id;sensor_type;location;lat;lon;timestamp;pressure;altitude;pressure_sealevel;temperature;humidity
9235;BME280;4652;42.716;23.218;2023-04-30T00:00:12;71182.53;;;-143.42;100.00
9235;BME280;4652;42.716;23.218;2023-04-30T00:06:54;119971.13;;;-143.42;100.00
9235;BME280;4652;42.716;23.218;2023-04-30T00:13:37;94501.97;;;7.54;100.00
9235;BME280;4652;42.716;23.218;2023-04-30T00:20:19;94502.91;;;7.34;100.00
9235;BME280;4652;42.716;23.218;2023-04-30T00:27:01;94500.31;;;7.19;100.00
9235;BME280;4652;42.716;23.218;2023-04-30T00:33:44;94500.81;;;7.26;100.00
9235;BME280;4652;42.716;23.218;2023-04-30T00:40:26;94511.59;;;7.11;100.00
9235;BME280;4652;42.716;23.218;2023-04-30T00:47:08;94502.19;;;7.14;100.00
9235;BME280;4652;42.716;23.218;2023-04-30T00:53:51;94496.09;;;7.03;100.00
9235;BME280;4652;42.716;23.218;2023-04-30T01:08:09;94488.94;;;6.88;100.00
9235;BME280;4652;42.716;23.218;2023-04-30T01:14:58;94486.50;;;6.92;100.00
9235;BME280;4652;42.716;23.218;2023-04-30T01:21:42;94490.84;;;6.78;100.00
9235;BME280;4652;42.716;23.218;2023-04-30T01:28:27;94494.88;;;6.75;100.00
9235;BME280;4652;42.716;23.218;2023-04-30T01:35:09;94491.06;;;6.91;100.00
9235;BME280;4652;42.716;23.218;2023-04-30T01:42:00;94492.66;;;6.97;100.00
9235;BME280;4652;42.716;23.218;2023-04-30T01:48:58;94497.03;;;7.27;100.00
9235;BME280;4652;42.716;23.218;2023-04-30T01:55:50;94496.13;;;7.47;100.00
9235;BME280;4652;42.716;23.218;2023-04-30T02:02:34;94481.50;;;7.29;100.00
9235;BME280;4652;42.716;23.218;2023-04-30T02:09:17;94508.63;;;7.18;100.00
9235;BME280;4652;42.716;23.218;2023-04-30T02:16:00;94496.34;;;7.01;100.00
9235;BME280;4652;42.716;23.218;2023-04-30T02:22:42;94503.59;;;7.06;100.00
9235;BME280;4652;42.716;23.218;2023-04-30T02:29:25;94494.75;;;7.05;100.00
9235;BME280;4652;42.716;23.218;2023-04-30T02:36:07;94486.06;;;7.24;100.00
9235;BME280;4652;42.716;23.218;2023-04-30T02:42:49;94492.94;;;7.45;100.00
9235;BME280;4652;42.716;23.218;2023-04-30T02:49:35;94496.06;;;7.62;100.00
9235;BME280;4652;42.716;23.218;2023-04-30T02:56:16;94502.91;;;7.78;100.00
9235;BME280;4652;42.716;23.218;2023-04-30T03:02:58;94494.94;;;7.63;100.00
9235;BME280;4652;42.716;23.218;2023-04-30T03:09:42;94507.50;;;7.73;100.00
9235;BME280;4652;42.716;23.218;2023-04-30T03:16:26;94511.19;;;7.77;100.00
9235;BME280;4652;42.716;23.218;2023-04-30T03:23:10;94515.03;;;7.65;100.00
9235;BME280;4652;42.716;23.218;2023-04-30T03:29:53;94524.97;;;7.60;100.00
9235;BME280;4652;42.716;23.218;2023-04-30T03:36:36;94512.63;;;7.64;100.00
9235;BME280;4652;42.716;23.218;2023-04-30T03:43:18;94521.00;;;7.52;100.00
9235;BME280;4652;42.716;23.218;2023-04-30T03:50:01;94538.56;;;7.74;100.00
9235;BME280;4652;42.716;23.218;2023-04-30T03:56:43;94543.53;;;7.90;100.00
9235;BME280;4652;42.716;23.218;2023-04-30T04:03:26;94494.41;;;7.66;100.00
9235;BME280;4652;42.716;23.218;2023-04-30T04:10:09;94554.94;;;8.11;100.00
9235;BME280;4652;42.716;23.218;2023-04-30T04:16:51;94547.81;;;8.30;100.00
9235;BME280;4652;42.716;23.218;2023-04-30T04:23:33;94551.91;;;8.80;100.00
9235;BME280;4652;42.716;23.218;2023-04-30T04:30:17;94545.38;;;9.33;100.00
9235;BME280;4652;42.716;23.218;2023-04-30T04:36:59;94555.97;;;9.86;100.00
9235;BME280;4652;42.716;23.218;2023-04-30T04:43:41;94568.50;;;10.14;100.00
9235;BME280;4652;42.716;23.218;2023-04-30T04:50:24;94573.13;;;10.46;100.00
9235;BME280;4652;42.716;23.218;2023-04-30T04:57:06;94576.00;;;10.68;100.00
9235;BME280;4652;42.716;23.218;2023-04-30T05:03:48;94560.84;;;10.86;100.00
9235;BME280;4652;42.716;23.218;2023-04-30T05:10:34;94569.19;;;11.16;100.00
9235;BME280;4652;42.716;23.218;2023-04-30T05:17:16;94534.59;;;10.78;100.00
9235;BME280;4652;42.716;23.218;2023-04-30T05:23:58;94574.84;;;10.55;100.00
9235;BME280;4652;42.716;23.218;2023-04-30T05:30:41;94573.22;;;10.73;100.00
9235;BME280;4652;42.716;23.218;2023-04-30T05:37:23;94560.88;;;11.13;100.00
9235;BME280;4652;42.716;23.218;2023-04-30T05:44:05;94577.84;;;11.13;100.00
9235;BME280;4652;42.716;23.218;2023-04-30T05:50:49;94570.09;;;11.53;100.00
9235;BME280;4652;42.716;23.218;2023-04-30T05:57:31;94572.38;;;11.59;100.00
9235;BME280;4652;42.716;23.218;2023-04-30T06:04:14;94574.13;;;12.05;100.00
9235;BME280;4652;42.716;23.218;2023-04-30T06:10:58;94579.22;;;12.42;100.00
9235;BME280;4652;42.716;23.218;2023-04-30T06:17:40;94588.09;;;12.87;100.00
9235;BME280;4652;42.716;23.218;2023-04-30T06:24:22;94589.88;;;13.14;100.00
9235;BME280;4652;42.716;23.218;2023-04-30T06:31:09;94585.00;;;14.54;97.83
9235;BME280;4652;42.716;23.218;2023-04-30T06:37:51;94563.66;;;20.58;54.75
9235;BME280;4652;42.716;23.218;2023-04-30T06:51:16;94545.97;;;25.84;nan
9235;BME280;4652;42.716;23.218;2023-04-30T06:57:58;94567.47;;;21.49;nan
9235;BME280;4652;42.716;23.218;2023-04-30T07:08:09;94574.72;;;19.64;54.59
9235;BME280;4652;42.716;23.218;2023-04-30T07:14:51;94552.88;;;17.77;59.01
9235;BME280;4652;42.716;23.218;2023-04-30T07:21:33;94574.28;;;16.76;65.11
9235;BME280;4652;42.716;23.218;2023-04-30T07:28:18;94587.66;;;16.19;68.64
9235;BME280;4652;42.716;23.218;2023-04-30T07:35:00;94595.59;;;16.04;72.83
9235;BME280;4652;42.716;23.218;2023-04-30T07:41:42;94596.91;;;15.98;73.92
9235;BME280;4652;42.716;23.218;2023-04-30T07:48:25;94597.72;;;16.19;77.61
9235;BME280;4652;42.716;23.218;2023-04-30T07:55:08;94592.09;;;16.53;68.48
9235;BME280;4652;42.716;23.218;2023-04-30T08:01:50;94570.97;;;16.50;67.16
9235;BME280;4652;42.716;23.218;2023-04-30T08:08:33;94599.53;;;16.65;66.98
9235;BME280;4652;42.716;23.218;2023-04-30T08:15:16;94606.25;;;16.79;67.71
9235;BME280;4652;42.716;23.218;2023-04-30T08:22:01;94607.84;;;17.01;62.62
9235;BME280;4652;42.716;23.218;2023-04-30T08:28:44;94581.44;;;17.46;60.74
9235;BME280;4652;42.716;23.218;2023-04-30T08:35:26;94587.00;;;18.47;56.71
9235;BME280;4652;42.716;23.218;2023-04-30T08:42:13;94598.97;;;20.12;54.63
9235;BME280;4652;42.716;23.218;2023-04-30T08:48:57;94584.72;;;20.73;52.18
9235;BME280;4652;42.716;23.218;2023-04-30T08:55:39;94569.28;;;21.83;51.10
9235;BME280;4652;42.716;23.218;2023-04-30T09:02:21;94569.22;;;21.38;49.22
9235;BME280;4652;42.716;23.218;2023-04-30T09:09:10;94559.66;;;21.70;50.44
9235;BME280;4652;42.716;23.218;2023-04-30T09:15:59;94546.19;;;21.84;47.97
9235;BME280;4652;42.716;23.218;2023-04-30T13:08:09;94513.03;;;18.08;66.60
9235;BME280;4652;42.716;23.218;2023-04-30T13:14:51;94503.00;;;18.25;63.26
9235;BME280;4652;42.716;23.218;2023-04-30T13:21:33;94495.91;;;18.48;66.72
9235;BME280;4652;42.716;23.218;2023-04-30T13:28:17;94487.53;;;18.29;64.48
9235;BME280;4652;42.716;23.218;2023-04-30T13:34:59;94483.06;;;18.08;63.73
9235;BME280;4652;42.716;23.218;2023-04-30T13:41:42;94472.06;;;18.33;63.87
9235;BME280;4652;42.716;23.218;2023-04-30T13:48:26;94475.44;;;18.14;61.56
9235;BME280;4652;42.716;23.218;2023-04-30T13:55:08;94439.97;;;17.74;59.24
9235;BME280;4652;42.716;23.218;2023-04-30T14:01:50;94480.66;;;18.07;60.36
9235;BME280;4652;42.716;23.218;2023-04-30T14:08:34;94468.94;;;17.54;65.10
9235;BME280;4652;42.716;23.218;2023-04-30T14:15:16;94473.47;;;17.75;62.72
9235;BME280;4652;42.716;23.218;2023-04-30T14:21:58;94463.84;;;18.17;63.74
9235;BME280;4652;42.716;23.218;2023-04-30T14:28:41;94456.84;;;18.71;61.63
9235;BME280;4652;42.716;23.218;2023-04-30T14:35:23;94441.69;;;18.58;59.26
9235;BME280;4652;42.716;23.218;2023-04-30T14:42:05;94439.78;;;18.74;57.22
9235;BME280;4652;42.716;23.218;2023-04-30T14:48:50;94450.69;;;18.90;57.10
9235;BME280;4652;42.716;23.218;2023-04-30T14:55:32;94419.44;;;18.88;55.06
9235;BME280;4652;42.716;23.218;2023-04-30T15:02:14;94457.28;;;18.89;54.49
9235;BME280;4652;42.716;23.218;2023-04-30T15:08:58;94460.97;;;18.81;55.76
9235;BME280;4652;42.716;23.218;2023-04-30T15:15:40;94461.78;;;18.82;54.59
9235;BME280;4652;42.716;23.218;2023-04-30T15:22:22;94460.91;;;19.09;54.27
9235;BME280;4652;42.716;23.218;2023-04-30T15:29:06;94472.16;;;18.76;60.03
9235;BME280;4652;42.716;23.218;2023-04-30T15:35:49;94467.34;;;18.57;58.60
9235;BME280;4652;42.716;23.218;2023-04-30T15:42:32;94449.66;;;18.11;59.03
9235;BME280;4652;42.716;23.218;2023-04-30T15:49:15;94460.38;;;18.32;59.39
9235;BME280;4652;42.716;23.218;2023-04-30T15:55:57;94461.44;;;18.15;60.30
9235;BME280;4652;42.716;23.218;2023-04-30T16:02:39;94467.59;;;18.12;60.48
9235;BME280;4652;42.716;23.218;2023-04-30T16:09:22;94465.34;;;18.02;58.63
9235;BME280;4652;42.716;23.218;2023-04-30T16:16:06;94427.97;;;17.75;59.38
9235;BME280;4652;42.716;23.218;2023-04-30T16:22:50;94467.56;;;17.60;59.66
9235;BME280;4652;42.716;23.218;2023-04-30T16:29:34;94463.31;;;17.51;61.73
9235;BME280;4652;42.716;23.218;2023-04-30T16:36:16;94469.03;;;17.58;63.70
9235;BME280;4652;42.716;23.218;2023-04-30T16:42:58;94466.78;;;17.60;63.58
9235;BME280;4652;42.716;23.218;2023-04-30T16:49:41;94471.19;;;17.52;63.87
9235;BME280;4652;42.716;23.218;2023-04-30T16:56:24;94482.97;;;17.32;67.01
9235;BME280;4652;42.716;23.218;2023-04-30T17:03:06;94499.03;;;17.01;72.57
9235;BME280;4652;42.716;23.218;2023-04-30T17:09:51;94504.00;;;16.66;66.70
9235;BME280;4652;42.716;23.218;2023-04-30T17:16:33;94507.72;;;16.41;71.54
9235;BME280;4652;42.716;23.218;2023-04-30T17:23:15;94507.47;;;15.93;79.21
9235;BME280;4652;42.716;23.218;2023-04-30T17:29:58;94519.53;;;15.45;85.57
9235;BME280;4652;42.716;23.218;2023-04-30T17:36:40;94524.38;;;14.85;87.96
9235;BME280;4652;42.716;23.218;2023-04-30T17:43:24;94552.97;;;14.56;90.24
9235;BME280;4652;42.716;23.218;2023-04-30T17:50:08;94558.50;;;14.17;91.25
9235;BME280;4652;42.716;23.218;2023-04-30T17:56:50;94568.78;;;13.81;95.31
9235;BME280;4652;42.716;23.218;2023-04-30T18:03:32;94576.06;;;13.54;97.06
9235;BME280;4652;42.716;23.218;2023-04-30T18:10:17;94570.34;;;13.17;100.00
9235;BME280;4652;42.716;23.218;2023-04-30T18:16:58;94594.00;;;13.11;100.00
9235;BME280;4652;42.716;23.218;2023-04-30T18:23:41;94534.88;;;12.43;97.95
9235;BME280;4652;42.716;23.218;2023-04-30T18:30:24;94605.84;;;12.57;99.14
9235;BME280;4652;42.716;23.218;2023-04-30T18:37:06;94628.00;;;12.46;100.00
9235;BME280;4652;42.716;23.218;2023-04-30T18:43:48;94642.94;;;12.29;100.00
9235;BME280;4652;42.716;23.218;2023-04-30T18:50:32;94647.25;;;12.30;100.00
9235;BME280;4652;42.716;23.218;2023-04-30T18:57:14;94650.41;;;12.46;100.00
9235;BME280;4652;42.716;23.218;2023-04-30T19:08:09;94652.22;;;12.73;100.00
